createdAt,value
2019-04-06T00:01:45.175Z,50.81
2019-04-06T00:04:21.347Z,50.89
2019-04-06T00:06:54.167Z,51.10
2019-04-06T00:09:26.925Z,51.21
2019-04-06T00:11:59.702Z,50.73
2019-04-06T00:14:33.092Z,50.92
2019-04-06T00:17:05.972Z,50.98
2019-04-06T00:19:39.891Z,51.16
2019-04-06T00:22:12.813Z,51.14
2019-04-06T00:24:45.715Z,51.21
2019-04-06T00:27:21.735Z,51.36
2019-04-06T00:29:56.653Z,51.39
2019-04-06T00:32:36.570Z,51.50
2019-04-06T00:35:10.762Z,51.43
2019-04-06T00:37:43.641Z,51.37
2019-04-06T00:40:17.522Z,51.40
2019-04-06T00:42:50.466Z,51.68
2019-04-06T00:45:23.390Z,51.63
2019-04-06T00:47:56.184Z,51.67
2019-04-06T00:50:29.044Z,51.73
2019-04-06T00:53:02.839Z,51.86
2019-04-06T00:55:35.831Z,51.81
2019-04-06T00:58:15.699Z,51.90
2019-04-06T01:00:48.540Z,52.10
2019-04-06T01:03:21.332Z,52.01
2019-04-06T01:05:56.389Z,52.21
2019-04-06T01:08:29.234Z,52.23
2019-04-06T01:11:03.199Z,52.11
2019-04-06T01:13:38.216Z,52.35
2019-04-06T01:16:11.286Z,52.18
2019-04-06T01:18:44.249Z,52.57
2019-04-06T01:21:17.152Z,52.40
2019-04-06T01:23:50.095Z,52.55
2019-04-06T01:26:23.025Z,52.46
2019-04-06T01:28:55.821Z,52.67
2019-04-06T01:31:30.688Z,52.67
2019-04-06T01:34:03.529Z,52.78
2019-04-06T01:36:38.356Z,53.08
2019-04-06T01:39:13.442Z,53.01
2019-04-06T01:41:46.350Z,53.10
2019-04-06T01:44:19.334Z,53.14
2019-04-06T01:46:52.123Z,53.38
2019-04-06T01:49:31.517Z,53.38
2019-04-06T01:52:05.300Z,53.71
2019-04-06T01:54:38.113Z,53.53
2019-04-06T01:57:12.581Z,53.80
2019-04-06T01:59:46.589Z,53.71
2019-04-06T02:02:30.572Z,53.93
2019-04-06T02:05:06.339Z,53.95
2019-04-06T02:07:39.202Z,54.09
2019-04-06T02:10:14.130Z,54.23
2019-04-06T02:12:49.510Z,54.28
2019-04-06T02:15:24.817Z,54.54
2019-04-06T02:18:02.275Z,54.61
2019-04-06T02:20:36.174Z,54.83
2019-04-06T02:23:08.965Z,55.05
2019-04-06T02:25:41.819Z,55.16
2019-04-06T02:28:15.406Z,55.19
2019-04-06T02:31:00.729Z,55.20
2019-04-06T02:33:52.516Z,55.38
2019-04-06T02:36:42.085Z,55.33
2019-04-06T02:39:31.888Z,55.43
2019-04-06T02:42:12.707Z,55.51
2019-04-06T02:44:45.978Z,55.73
2019-04-06T02:47:18.775Z,55.65
2019-04-06T02:49:51.613Z,55.69
2019-04-06T02:52:25.493Z,55.96
2019-04-06T02:54:58.415Z,55.96
2019-04-06T02:57:31.302Z,56.02
2019-04-06T03:00:04.343Z,56.16
2019-04-06T03:02:39.334Z,56.37
2019-04-06T03:05:13.416Z,56.37
2019-04-06T03:07:46.514Z,56.49
2019-04-06T03:10:20.841Z,56.57
2019-04-06T03:12:53.679Z,56.67
2019-04-06T03:15:26.625Z,56.80
2019-04-06T03:17:59.699Z,57.07
2019-04-06T03:20:32.611Z,56.99
2019-04-06T03:23:07.139Z,57.07
2019-04-06T03:25:41.086Z,57.27
2019-04-06T03:28:17.779Z,57.34
2019-04-06T03:30:50.703Z,57.42
2019-04-06T03:33:30.513Z,57.39
2019-04-06T03:36:04.897Z,57.46
2019-04-06T03:38:37.828Z,57.70
2019-04-06T03:41:13.369Z,57.68
2019-04-06T03:43:53.304Z,57.76
2019-04-06T03:46:30.381Z,57.69
2019-04-06T03:49:05.304Z,57.79
2019-04-06T03:51:41.806Z,57.81
2019-04-06T03:54:14.723Z,57.75
2019-04-06T03:56:47.794Z,57.73
2019-04-06T03:59:21.804Z,57.75
2019-04-06T04:01:54.747Z,57.77
2019-04-06T04:04:27.666Z,57.88
2019-04-06T04:07:00.690Z,57.99
2019-04-06T04:09:33.576Z,58.05
2019-04-06T04:12:09.671Z,58.26
2019-04-06T04:14:45.752Z,58.13
2019-04-06T04:17:18.537Z,58.18
2019-04-06T04:19:51.358Z,58.34
2019-04-06T04:22:24.546Z,58.37
2019-04-06T04:24:58.585Z,58.53
2019-04-06T04:27:31.385Z,58.85
2019-04-06T04:30:04.573Z,58.91
2019-04-06T04:32:37.534Z,58.95
2019-04-06T04:35:10.678Z,58.72
2019-04-06T04:37:43.974Z,58.91
2019-04-06T04:40:16.804Z,58.79
2019-04-06T04:42:49.726Z,58.58
2019-04-06T04:45:22.581Z,58.49
2019-04-06T04:47:55.755Z,58.46
2019-04-06T04:50:28.642Z,58.26
2019-04-06T04:53:01.786Z,58.24
2019-04-06T04:55:36.414Z,57.93
2019-04-06T04:58:09.361Z,57.87
2019-04-06T05:00:42.109Z,57.82
2019-04-06T05:03:14.963Z,57.55
2019-04-06T05:05:47.792Z,57.49
2019-04-06T05:08:20.799Z,57.42
2019-04-06T05:10:53.577Z,57.55
2019-04-06T05:13:26.434Z,57.03
2019-04-06T05:16:24.588Z,56.88
2019-04-06T05:18:57.350Z,57.70
2019-04-06T05:21:30.175Z,56.47
2019-04-06T05:24:03.009Z,56.29
2019-04-06T05:26:37.879Z,55.96
2019-04-06T05:29:10.435Z,55.34
2019-04-06T05:31:43.185Z,55.49
2019-04-06T05:34:16.048Z,55.47
2019-04-06T05:36:48.925Z,55.09
2019-04-06T05:39:21.705Z,54.96
2019-04-06T05:41:54.717Z,54.68
2019-04-06T05:44:27.607Z,54.16
2019-04-06T05:47:00.819Z,54.25
2019-04-06T05:49:33.924Z,54.23
2019-04-06T05:52:06.874Z,54.23
2019-04-06T05:54:39.814Z,53.63
2019-04-06T05:57:12.830Z,53.98
2019-04-06T05:59:45.636Z,53.42
2019-04-06T06:02:19.041Z,53.41
2019-04-06T06:04:51.999Z,53.23
2019-04-06T06:07:24.888Z,53.37
2019-04-06T06:09:57.672Z,52.85
2019-04-06T06:12:30.470Z,52.74
2019-04-06T06:15:03.514Z,52.52
2019-04-06T06:17:36.406Z,54.44
2019-04-06T06:20:09.770Z,52.25
2019-04-06T06:22:42.595Z,52.64
2019-04-06T06:25:15.702Z,51.87
2019-04-06T06:27:48.550Z,52.04
2019-04-06T06:30:24.412Z,52.01
2019-04-06T06:32:57.365Z,51.95
2019-04-06T06:35:30.198Z,51.64
2019-04-06T06:38:03.016Z,51.54
2019-04-06T06:40:35.945Z,51.23
2019-04-06T06:43:08.768Z,50.92
2019-04-06T06:45:41.768Z,51.13
2019-04-06T06:48:14.602Z,50.98
2019-04-06T06:50:48.518Z,51.00
2019-04-06T06:53:21.330Z,50.48
2019-04-06T06:55:54.397Z,50.76
2019-04-06T06:58:27.195Z,50.01
2019-04-06T07:00:59.996Z,49.52
2019-04-06T07:03:33.071Z,49.84
2019-04-06T07:06:05.997Z,49.67
2019-04-06T07:08:39.668Z,49.11
2019-04-06T07:11:12.541Z,49.18
2019-04-06T07:13:45.496Z,49.19
2019-04-06T07:16:18.442Z,49.00
2019-04-06T07:18:51.259Z,48.54
2019-04-06T07:21:24.085Z,48.30
2019-04-06T07:23:56.870Z,48.46
2019-04-06T07:26:29.658Z,48.36
2019-04-06T07:29:02.733Z,47.98
2019-04-06T07:31:35.525Z,47.98
2019-04-06T07:34:08.305Z,47.25
2019-04-06T07:36:41.086Z,46.88
2019-04-06T07:39:14.016Z,46.34
2019-04-06T07:41:46.859Z,46.04
2019-04-06T07:44:19.646Z,45.95
2019-04-06T07:46:52.683Z,45.49
2019-04-06T07:49:25.615Z,45.11
2019-04-06T07:51:58.438Z,44.89
2019-04-06T07:54:31.294Z,44.74
2019-04-06T07:57:04.443Z,44.29
2019-04-06T07:59:37.381Z,43.66
2019-04-06T08:02:10.188Z,43.12
2019-04-06T08:04:43.109Z,42.75
2019-04-06T08:07:15.937Z,42.91
2019-04-06T08:09:48.758Z,42.37
2019-04-06T08:12:21.677Z,42.26
2019-04-06T08:14:57.398Z,41.62
2019-04-06T08:17:31.554Z,42.01
2019-04-06T08:20:05.184Z,41.37
2019-04-06T08:22:37.998Z,39.98
2019-04-06T08:25:11.501Z,39.13
2019-04-06T08:27:44.558Z,39.39
2019-04-06T08:30:17.509Z,39.08
2019-04-06T08:32:50.345Z,38.29
2019-04-06T08:35:26.090Z,38.67
2019-04-06T08:37:57.869Z,37.52
2019-04-06T08:40:31.025Z,35.51
2019-04-06T08:43:03.828Z,37.06
2019-04-06T08:45:36.641Z,36.78
2019-04-06T08:48:09.453Z,37.15
2019-04-06T08:50:42.367Z,36.87
2019-04-06T08:53:15.304Z,35.97
2019-04-06T08:55:48.196Z,35.12
2019-04-06T08:58:21.498Z,34.13
2019-04-06T09:00:54.403Z,34.15
2019-04-06T09:03:27.666Z,33.98
2019-04-06T09:06:00.516Z,33.44
2019-04-06T09:08:33.295Z,34.25
2019-04-06T09:11:06.190Z,33.29
2019-04-06T09:13:40.416Z,32.43
2019-04-06T09:16:13.528Z,31.94
2019-04-06T09:18:49.154Z,31.78
2019-04-06T09:21:22.634Z,31.95
2019-04-06T09:23:58.209Z,31.64
2019-04-06T09:26:30.440Z,33.52
2019-04-06T09:29:03.315Z,32.01
2019-04-06T09:31:36.287Z,31.29
2019-04-06T09:34:10.086Z,31.32
2019-04-06T09:36:43.472Z,31.34
2019-04-06T09:39:16.211Z,30.73
2019-04-06T09:41:49.234Z,30.50
2019-04-06T09:44:39.866Z,30.69
2019-04-06T09:47:20.854Z,29.79
2019-04-06T09:50:11.426Z,29.83
2019-04-06T09:53:04.489Z,28.35
2019-04-06T09:55:58.733Z,29.05
2019-04-06T09:58:53.321Z,28.59
2019-04-06T10:01:48.037Z,27.99
2019-04-06T10:04:55.507Z,28.11
2019-04-06T10:08:05.741Z,27.65
2019-04-06T10:10:52.433Z,29.59
2019-04-06T10:13:45.182Z,29.44
2019-04-06T10:16:45.750Z,30.56
2019-04-06T10:19:35.855Z,29.99
2019-04-06T10:22:27.263Z,29.31
2019-04-06T10:25:21.734Z,29.32
2019-04-06T10:28:31.905Z,29.71
2019-04-06T10:31:18.107Z,29.33
2019-04-06T10:34:20.884Z,29.37
2019-04-06T10:37:12.044Z,29.20
2019-04-06T10:39:53.068Z,28.08
2019-04-06T10:42:32.800Z,28.91
2019-04-06T10:45:24.734Z,28.64
2019-04-06T10:48:18.081Z,28.78
2019-04-06T10:51:19.022Z,27.90
2019-04-06T10:54:13.104Z,28.34
2019-04-06T10:57:23.003Z,28.06
2019-04-06T11:00:17.426Z,28.62
2019-04-06T11:02:58.007Z,28.36
2019-04-06T11:05:55.728Z,27.94
2019-04-06T11:08:36.489Z,28.34
2019-04-06T11:11:22.858Z,26.89
2019-04-06T11:14:26.819Z,27.41
2019-04-06T11:17:09.983Z,28.85
2019-04-06T11:20:01.899Z,27.62
2019-04-06T11:23:10.292Z,27.92
2019-04-06T11:26:20.344Z,27.86
2019-04-06T11:29:18.211Z,27.73
2019-04-06T11:32:00.762Z,28.18
2019-04-06T11:34:51.406Z,28.21
2019-04-06T11:37:42.121Z,27.84
2019-04-06T11:40:40.628Z,27.70
2019-04-06T11:43:41.405Z,27.92
2019-04-06T11:46:36.024Z,27.89
2019-04-06T11:49:20.100Z,27.60
2019-04-06T11:52:04.373Z,27.55
2019-04-06T11:54:54.612Z,27.01
2019-04-06T11:57:46.320Z,26.86
2019-04-06T12:00:44.167Z,27.02
2019-04-06T12:03:25.559Z,26.66
2019-04-06T12:06:20.193Z,26.48
2019-04-06T12:09:10.913Z,27.93
2019-04-06T12:12:01.239Z,27.13
2019-04-06T12:14:52.426Z,27.17
2019-04-06T12:17:35.555Z,27.37
2019-04-06T12:20:34.042Z,28.07
2019-04-06T12:23:25.332Z,27.72
2019-04-06T12:26:17.352Z,27.47
2019-04-06T12:29:09.084Z,27.02
2019-04-06T12:31:59.944Z,27.19
2019-04-06T12:34:47.959Z,27.24
2019-04-06T12:37:37.927Z,26.72
2019-04-06T12:40:20.318Z,26.02
2019-04-06T12:43:06.052Z,26.18
2019-04-06T12:45:56.528Z,25.96
2019-04-06T12:49:06.467Z,26.87
2019-04-06T12:51:58.887Z,27.48
2019-04-06T12:54:59.468Z,28.11
2019-04-06T12:57:41.125Z,28.24
2019-04-06T13:00:32.579Z,27.76
2019-04-06T13:03:22.934Z,28.27
2019-04-06T13:06:09.378Z,27.35
2019-04-06T13:09:07.106Z,27.96
2019-04-06T13:12:04.677Z,28.37
2019-04-06T13:14:56.336Z,27.50
2019-04-06T13:17:45.272Z,27.55
2019-04-06T13:20:49.133Z,27.66
2019-04-06T13:23:28.619Z,27.29
2019-04-06T13:26:38.590Z,27.20
2019-04-06T13:29:36.756Z,28.07
2019-04-06T13:32:43.499Z,27.94
2019-04-06T13:35:50.535Z,28.85
2019-04-06T13:38:34.408Z,28.90
2019-04-06T13:41:29.196Z,28.66
2019-04-06T13:44:20.870Z,28.39
2019-04-06T13:47:05.941Z,28.58
2019-04-06T13:50:06.681Z,29.15
2019-04-06T13:53:04.769Z,29.07
2019-04-06T13:55:59.232Z,29.85
2019-04-06T13:58:53.802Z,27.83
2019-04-06T14:01:48.464Z,27.97
2019-04-06T14:04:52.183Z,28.81
2019-04-06T14:07:41.695Z,29.37
2019-04-06T14:10:27.392Z,29.89
2019-04-06T14:13:18.001Z,29.74
2019-04-06T14:16:09.924Z,30.12
2019-04-06T14:19:00.918Z,29.88
2019-04-06T14:21:55.713Z,29.17
2019-04-06T14:24:53.152Z,29.16
2019-04-06T14:27:52.446Z,29.71
2019-04-06T14:30:47.989Z,29.92
2019-04-06T14:33:48.691Z,30.19
2019-04-06T14:36:37.754Z,29.89
2019-04-06T14:39:27.937Z,29.89
2019-04-06T14:42:35.025Z,30.03
2019-04-06T14:45:38.936Z,30.39
2019-04-06T14:48:42.714Z,30.34
2019-04-06T14:51:27.325Z,30.81
2019-04-06T14:54:10.147Z,29.87
2019-04-06T14:56:48.831Z,29.43
2019-04-06T14:59:48.276Z,29.46
2019-04-06T15:02:36.942Z,30.37
2019-04-06T15:05:20.030Z,29.98
2019-04-06T15:08:05.183Z,30.50
2019-04-06T15:10:55.399Z,29.91
2019-04-06T15:13:55.874Z,30.51
2019-04-06T15:16:54.359Z,30.50
2019-04-06T15:19:54.938Z,29.93
2019-04-06T15:22:46.578Z,29.73
2019-04-06T15:25:31.717Z,29.85
2019-04-06T15:28:35.741Z,30.07
2019-04-06T15:31:49.820Z,30.18
2019-04-06T15:34:35.901Z,29.61
2019-04-06T15:37:31.262Z,29.60
2019-04-06T15:40:40.934Z,29.99
2019-04-06T15:43:25.848Z,30.45
2019-04-06T15:46:12.306Z,30.79
2019-04-06T15:49:05.899Z,31.28
2019-04-06T15:51:46.862Z,31.42
2019-04-06T15:54:44.719Z,31.79
2019-04-06T15:57:51.674Z,31.77
2019-04-06T16:00:46.348Z,31.88
2019-04-06T16:03:38.124Z,31.70
2019-04-06T16:06:28.810Z,31.93
2019-04-06T16:09:23.661Z,32.30
2019-04-06T16:12:14.582Z,32.25
2019-04-06T16:15:12.337Z,32.34
2019-04-06T16:17:52.348Z,32.53
2019-04-06T16:20:38.916Z,32.59
2019-04-06T16:23:33.471Z,32.83
2019-04-06T16:26:23.555Z,32.87
2019-04-06T16:29:18.652Z,33.11
2019-04-06T16:32:32.419Z,33.13
2019-04-06T16:35:17.849Z,33.17
2019-04-06T16:38:13.234Z,33.23
2019-04-06T16:41:00.206Z,33.31
2019-04-06T16:43:52.021Z,33.71
2019-04-06T16:46:42.790Z,33.88
2019-04-06T16:49:49.862Z,33.68
2019-04-06T16:52:41.675Z,33.81
2019-04-06T16:55:35.659Z,33.80
2019-04-06T16:58:26.255Z,33.75
2019-04-06T17:01:08.494Z,33.94
2019-04-06T17:04:12.783Z,34.28
2019-04-06T17:07:19.454Z,34.37
2019-04-06T17:10:26.393Z,34.50
2019-04-06T17:13:30.332Z,34.84
2019-04-06T17:16:22.468Z,35.12
2019-04-06T17:19:17.078Z,35.46
2019-04-06T17:22:20.679Z,35.77
2019-04-06T17:25:02.917Z,35.83
2019-04-06T17:27:57.316Z,36.16
2019-04-06T17:30:54.277Z,36.39
2019-04-06T17:33:42.861Z,36.43
2019-04-06T17:36:48.821Z,36.88
2019-04-06T17:39:29.821Z,37.07
2019-04-06T17:42:29.283Z,37.43
2019-04-06T17:45:33.474Z,37.65
2019-04-06T17:48:20.485Z,37.68
2019-04-06T17:51:25.035Z,37.92
2019-04-06T17:54:27.669Z,38.05
2019-04-06T17:57:22.350Z,38.18
2019-04-06T18:00:16.028Z,38.21
2019-04-06T18:03:11.579Z,38.10
2019-04-06T18:06:04.850Z,38.57
2019-04-06T18:08:59.529Z,38.79
2019-04-06T18:11:42.297Z,39.14
2019-04-06T18:14:17.832Z,39.39
2019-04-06T18:16:49.876Z,39.69
2019-04-06T18:19:22.871Z,39.91
2019-04-06T18:21:56.100Z,40.02
2019-04-06T18:24:29.303Z,40.21
2019-04-06T18:27:02.210Z,40.40
2019-04-06T18:29:35.289Z,40.64
2019-04-06T18:32:32.586Z,40.76
2019-04-06T18:35:06.709Z,40.77
2019-04-06T18:37:55.914Z,40.67
2019-04-06T18:40:29.567Z,40.91
2019-04-06T18:43:02.794Z,41.08
2019-04-06T18:45:35.818Z,41.38
2019-04-06T18:48:09.021Z,41.28
2019-04-06T18:50:42.147Z,41.27
2019-04-06T18:53:15.081Z,41.38
2019-04-06T18:55:48.180Z,41.46
2019-04-06T18:58:21.187Z,41.54
2019-04-06T19:01:08.971Z,41.62
2019-04-06T19:03:44.227Z,41.70
2019-04-06T19:06:17.853Z,41.85
2019-04-06T19:08:51.259Z,41.91
2019-04-06T19:11:24.624Z,42.00
2019-04-06T19:13:57.754Z,42.16
2019-04-06T19:16:31.191Z,42.41
2019-04-06T19:19:04.186Z,42.70
2019-04-06T19:21:37.676Z,42.78
2019-04-06T19:24:11.254Z,43.00
2019-04-06T19:26:44.794Z,43.24
2019-04-06T19:29:18.205Z,43.29
2019-04-06T19:31:52.637Z,43.47
2019-04-06T19:34:26.006Z,43.58
2019-04-06T19:37:00.215Z,43.66
2019-04-06T19:39:33.435Z,43.63
2019-04-06T19:42:06.517Z,43.76
2019-04-06T19:44:39.601Z,43.71
2019-04-06T19:47:12.592Z,43.83
2019-04-06T19:49:45.705Z,43.80
2019-04-06T19:52:18.797Z,43.93
2019-04-06T19:54:52.221Z,44.00
2019-04-06T19:57:25.375Z,44.09
2019-04-06T20:00:00.059Z,44.14
2019-04-06T20:02:33.467Z,44.29
2019-04-06T20:05:08.348Z,44.38
2019-04-06T20:07:43.389Z,44.56
2019-04-06T20:10:24.078Z,44.83
2019-04-06T20:12:59.651Z,44.86
2019-04-06T20:15:35.706Z,45.11
2019-04-06T20:18:09.242Z,45.15
2019-04-06T20:20:42.113Z,45.19
2019-04-06T20:23:15.254Z,45.28
2019-04-06T20:25:48.129Z,45.46
2019-04-06T20:28:21.012Z,45.63
2019-04-06T20:30:54.471Z,45.84
2019-04-06T20:33:28.374Z,46.02
2019-04-06T20:36:01.701Z,46.08
2019-04-06T20:38:34.650Z,46.19
2019-04-06T20:41:07.511Z,46.24
2019-04-06T20:43:40.454Z,46.39
2019-04-06T20:46:13.558Z,46.56
2019-04-06T20:48:46.469Z,46.72
2019-04-06T20:51:19.383Z,46.95
2019-04-06T20:53:52.283Z,47.11
2019-04-06T20:56:25.213Z,47.47
2019-04-06T20:58:58.657Z,47.57
2019-04-06T21:01:32.361Z,47.69
2019-04-06T21:04:05.422Z,47.70
2019-04-06T21:06:38.348Z,47.81
2019-04-06T21:09:15.087Z,47.96
2019-04-06T21:11:48.209Z,47.97
2019-04-06T21:14:21.568Z,48.00
2019-04-06T21:16:54.760Z,47.98
2019-04-06T21:19:28.157Z,48.12
2019-04-06T21:22:01.455Z,48.33
2019-04-06T21:24:35.014Z,48.52
2019-04-06T21:27:08.540Z,48.74
2019-04-06T21:29:41.518Z,48.83
2019-04-06T21:32:15.069Z,49.01
2019-04-06T21:34:48.564Z,49.11
2019-04-06T21:37:21.424Z,49.30
2019-04-06T21:39:54.335Z,49.57
2019-04-06T21:42:27.582Z,49.71
2019-04-06T21:45:00.616Z,49.77
2019-04-06T21:47:34.008Z,49.96
2019-04-06T21:50:08.135Z,50.13
2019-04-06T21:52:41.645Z,50.18
2019-04-06T21:55:16.155Z,50.21
2019-04-06T21:57:49.142Z,50.13
2019-04-06T22:00:38.587Z,50.26
2019-04-06T22:03:13.197Z,50.40
2019-04-06T22:05:46.456Z,50.58
2019-04-06T22:08:19.513Z,50.46
2019-04-06T22:10:52.862Z,50.49
2019-04-06T22:13:27.291Z,50.63
2019-04-06T22:16:00.745Z,50.88
2019-04-06T22:18:33.935Z,50.93
2019-04-06T22:21:07.056Z,50.93
2019-04-06T22:23:43.951Z,50.95
2019-04-06T22:26:14.624Z,51.08
2019-04-06T22:28:48.040Z,51.23
2019-04-06T22:31:21.338Z,51.20
2019-04-06T22:33:54.298Z,51.41
2019-04-06T22:36:27.708Z,51.56
2019-04-06T22:39:00.721Z,51.62
2019-04-06T22:41:35.474Z,51.59
2019-04-06T22:44:08.566Z,51.54
2019-04-06T22:46:41.846Z,51.71
2019-04-06T22:49:14.798Z,52.06
2019-04-06T22:51:48.277Z,52.06
2019-04-06T22:54:22.972Z,52.10
2019-04-06T22:56:55.864Z,52.09
2019-04-06T22:59:28.895Z,52.02
2019-04-06T23:02:01.850Z,52.19
2019-04-06T23:05:00.116Z,52.40
2019-04-06T23:07:33.650Z,52.43
2019-04-06T23:10:06.831Z,52.45
2019-04-06T23:12:40.400Z,52.46
2019-04-06T23:15:13.607Z,52.52
2019-04-06T23:17:46.646Z,52.74
2019-04-06T23:20:19.440Z,52.46
2019-04-06T23:22:52.584Z,52.86
2019-04-06T23:25:25.622Z,53.04
2019-04-06T23:27:58.720Z,52.95
2019-04-06T23:30:31.793Z,53.04
2019-04-06T23:33:04.996Z,53.09
2019-04-06T23:35:37.937Z,53.44
2019-04-06T23:38:11.234Z,53.44
2019-04-06T23:40:44.319Z,53.52
2019-04-06T23:43:17.213Z,53.86
2019-04-06T23:45:50.378Z,53.99
2019-04-06T23:48:23.376Z,53.90
2019-04-06T23:50:56.177Z,54.25
2019-04-06T23:53:29.371Z,54.10
2019-04-06T23:56:02.692Z,54.27
2019-04-06T23:58:35.615Z,54.48
